New Stuyahok, Alaska
Current Conditions -  °F | °C
As of 11:56 PM on Sunday 19 Oct 2014 (Local Time) from PANW Reporting Station
Overcast Overcast  
Wind Chill: 16°   Ceiling: 4900
Heat Index: 25°   Visibility: 10mi
Dew Point: 21°   Wind: 8mph
Humidity: 84%   Direction: 350°N
Pressure: 29.2"   Gusts: NA
Location:  59.45°N, 157.31°W
Report Text: PANW 200756Z AUTO 35007KT 10SM FEW018 SCT038 OVC049 M04/M06 A2920 RMK AO2 TSNO T10381061 SLP869 $
Loading
Personal Weather Stations






























Interactive Weather Map
Tropical Storm Tracking
New forecast layout! Learn more

10-Day Weather Forecast

Advertisements
Track Severe Weather on mobile